Flight Track Log - Related Links

Times and Time Zones

All times are in EDT time to prevent confusion due to time zone crossing. See the SWA286 flight status page for this flight to view local times or setup timezone preferences in your user account.

Time Position Orientation Groundspeed Altitude Reporting Facility
EDT Latitude Longitude Course Direction KTS km/h meters Rate Location/Type
Thu 15:12:13 40.8167 -73.0500 221° Southwest 187 346 1,006  Level New York TRACON
Thu 15:14:34 40.7783 -72.8211 102° East 279 517 3,078 874 Climbing Boston Center
Thu 15:15:34 40.7456 -72.6947 109° East 323 599 3,932 967 Climbing Boston Center
Thu 15:16:35 40.6581 -72.6536 160° South 331 613 5,029 974 Climbing Boston Center
Thu 15:17:00 40.7284 -72.5389 221° Southwest  Level FlightAware Approximate
Thu 15:17:36 40.5953 -72.7025 211° Southwest 280 518 5,913  Level Boston Center
Thu 15:18:36 40.4972 -72.8003 217° Southwest 308 570 7,010 1,085 Climbing Boston Center
Thu 15:19:34 40.4219 -72.8900 222° Southwest 345 639 8,047 469 Climbing Boston Center
Thu 15:21:51 40.2458 -73.0939 221° Southwest 386 715 8,534 148 Climbing Washington Center
Thu 15:22:51 40.1581 -73.1892 220° Southwest 391 724 8,534  Level Washington Center
Thu 15:23:51 40.0725 -73.2869 221° Southwest 405 750 8,534  Level Washington Center
Thu 15:24:51 39.9847 -73.3847 220° Southwest 411 761 8,534  Level Washington Center
Thu 15:25:51 39.8889 -73.4906 220° Southwest 411 761 8,534  Level Washington Center
Thu 15:26:51 39.8031 -73.5875 221° Southwest 417 772 8,534  Level Washington Center
Thu 15:27:51 39.7253 -73.6733 220° Southwest 417 772 8,534  Level Washington Center
Thu 15:28:51 39.6350 -73.7728 220° Southwest 422 782 8,534  Level Washington Center
Thu 15:29:51 39.5469 -73.8692 220° Southwest 422 782 8,534  Level Washington Center
Thu 15:30:51 39.4756 -73.9839 231° Southwest 422 782 8,534  Level Washington Center
Thu 15:31:51 39.4125 -74.1061 236° Southwest 417 772 8,534  Level Washington Center
Thu 15:32:51 39.3472 -74.2283 235° Southwest 417 772 8,534 -15 Level Washington Center
Thu 15:33:51 39.2778 -74.3503 234° Southwest 422 782 8,504 -183 Descending Washington Center
Thu 15:34:51 39.2164 -74.4692 236° Southwest 422 782 8,169 -320 Descending Washington Center
Thu 15:35:51 39.1569 -74.5772 235° Southwest 403 747 7,864 -335 Descending Washington Center
Thu 15:36:51 39.0953 -74.6903 235° Southwest 396 734 7,498 -411 Descending Washington Center
Thu 15:37:51 39.0397 -74.8006 237° Southwest 383 710 7,041 -457 Descending Washington Center
Thu 15:38:51 38.9822 -74.9028 234° Southwest 372 689 6,584 -457 Descending Washington Center
Thu 15:39:51 38.9264 -75.0047 235° Southwest 361 668 6,126 -472 Descending Washington Center
Thu 15:40:51 38.8706 -75.0983 233° Southwest 355 658 5,639 -457 Descending Washington Center
Thu 15:41:51 38.8189 -75.2000 237° Southwest 350 649 5,212 -366 Descending Washington Center
Thu 15:42:51 38.8025 -75.3119 259° West 319 591 4,907 -152 Descending Washington Center
Thu 15:43:51 38.7964 -75.4239 266° West 319 591 4,907  Level Washington Center
Thu 15:44:51 38.7903 -75.5383 266° West 319 591 4,907  Level Washington Center
Thu 15:45:51 38.7819 -75.6556 265° West 325 602 4,907  Level Washington Center
Thu 15:46:51 38.7756 -75.7647 266° West 325 602 4,907 -320 Level Washington Center
Thu 15:47:51 38.7692 -75.8739 266° West 319 591 4,267 -518 Descending Washington Center
Thu 15:48:51 38.7606 -75.9831 264° West 319 591 3,871 -442 Descending Washington Center
Thu 15:49:51 38.7539 -76.0894 265° West 314 581 3,383 -274 Descending Washington Center
Thu 15:50:51 38.7617 -76.1906 276° West 300 555 3,322 -259 Descending Washington Center
Thu 15:51:51 38.8050 -76.2736 304° West 278 515 2,865 -472 Descending Washington Center
Thu 15:52:51 38.8525 -76.3567 306° West 278 515 2,377 -496 Descending Washington Center
Thu 15:53:38 38.8833 -76.4333 297° West 269 499 1,981 -474 Descending Potomac TRACON
Thu 15:54:39 38.9333 -76.5000 314° West 268 496 1,524 -227 Descending Potomac TRACON
Thu 15:55:39 38.9667 -76.5833 297° West 267 494 1,524 -152 Level Potomac TRACON
Thu 15:56:39 39.0000 -76.6667 297° West 274 507 1,219 -166 Descending Potomac TRACON
Thu 15:57:40 39.0500 -76.7500 308° West 268 496 1,189  Descending Potomac TRACON
Thu 15:58:34 39.0833 -76.8333 297° West 269 499 1,219 -61 Climbing Potomac TRACON
Thu 15:59:40 39.1333 -76.8500 346° North 250 463 1,067 -189 Descending Potomac TRACON
Thu 16:00:40 39.1667 -76.7833 57° Northeast 225 417 823 -76 Descending Potomac TRACON
Thu 16:01:40 39.1833 -76.7167 72° East 204 378 914 60 Climbing Potomac TRACON
Thu 16:02:41 39.1833 -76.6500 90° East 240 444 945  Climbing Potomac TRACON
Thu 16:03:35 39.1167 -76.7000 210° Southwest 251 465 914 -64 Descending Potomac TRACON
Thu 16:04:35 39.1000 -76.7833 256° West 229 425 823 -137 Descending Potomac TRACON
Thu 16:05:35 39.1500 -76.8167 333° Northwest 217 402 640 -122 Descending Potomac TRACON
Thu 16:06:35 39.1833 -76.8000 21° North 177 328 579 -137 Descending Potomac TRACON
Thu 16:07:35 39.1833 -76.7500 90° East 132 245 366 -213 Descending Potomac TRACON
Thu 16:08:35 39.1833 -76.7167 90° East 125 232 152 -213 Descending Potomac TRACON

Login

Don't have an account? Register now (free) for customized features, flight alerts, and more!